createdAt,value
2018-05-06T00:00:41.329Z,1019.38
2018-05-06T00:01:41.310Z,1019.39
2018-05-06T00:02:41.312Z,1019.38
2018-05-06T00:03:41.278Z,1019.36
2018-05-06T00:04:41.262Z,1019.34
2018-05-06T00:05:41.251Z,1019.32
2018-05-06T00:06:41.232Z,1019.32
2018-05-06T00:07:41.218Z,1019.30
2018-05-06T00:08:41.199Z,1019.30
2018-05-06T00:09:41.180Z,1019.33
2018-05-06T00:10:41.162Z,1019.33
2018-05-06T00:11:41.150Z,1019.30
2018-05-06T00:12:41.132Z,1019.26
2018-05-06T00:13:41.118Z,1019.27
2018-05-06T00:14:41.099Z,1019.28
2018-05-06T00:15:41.100Z,1019.28
2018-05-06T00:16:41.076Z,1019.28
2018-05-06T00:17:41.053Z,1019.30
2018-05-06T00:18:41.036Z,1019.34
2018-05-06T00:19:41.022Z,1019.32
2018-05-06T00:20:41.009Z,1019.35
2018-05-06T00:21:40.989Z,1019.31
2018-05-06T00:22:40.973Z,1019.34
2018-05-06T00:23:40.962Z,1019.32
2018-05-06T00:24:40.942Z,1019.31
2018-05-06T00:25:40.926Z,1019.30
2018-05-06T00:26:40.914Z,1019.29
2018-05-06T00:27:40.897Z,1019.27
2018-05-06T00:28:40.877Z,1019.28
2018-05-06T00:29:40.868Z,1019.28
2018-05-06T00:30:40.854Z,1019.23
2018-05-06T00:31:40.830Z,1019.22
2018-05-06T00:32:40.818Z,1019.24
2018-05-06T00:33:40.906Z,1019.22
2018-05-06T00:34:40.785Z,1019.25
2018-05-06T00:35:40.774Z,1019.27
2018-05-06T00:36:40.756Z,1019.29
2018-05-06T00:37:40.736Z,1019.28
2018-05-06T00:38:40.722Z,1019.32
2018-05-06T00:39:40.705Z,1019.31
2018-05-06T00:40:40.688Z,1019.36
2018-05-06T00:41:40.673Z,1019.32
2018-05-06T00:42:40.659Z,1019.29
2018-05-06T00:43:40.638Z,1019.29
2018-05-06T00:44:40.631Z,1019.25
2018-05-06T00:45:40.609Z,1019.27
2018-05-06T00:46:40.590Z,1019.28
2018-05-06T00:47:40.578Z,1019.24
2018-05-06T00:48:40.562Z,1019.21
2018-05-06T00:49:40.547Z,1019.25
2018-05-06T00:50:40.528Z,1019.19
2018-05-06T00:51:40.520Z,1019.21
2018-05-06T00:52:40.498Z,1019.13
2018-05-06T00:53:40.486Z,1019.17
2018-05-06T00:54:40.467Z,1019.17
2018-05-06T00:55:40.448Z,1019.13
2018-05-06T00:56:40.441Z,1019.12
2018-05-06T00:57:40.422Z,1019.16
2018-05-06T00:58:40.405Z,1019.15
2018-05-06T00:59:40.390Z,1019.14
2018-05-06T01:00:40.374Z,1019.13
2018-05-06T01:01:40.362Z,1019.17
2018-05-06T01:02:40.336Z,1019.14
2018-05-06T01:03:40.323Z,1019.20
2018-05-06T01:04:40.303Z,1019.16
2018-05-06T01:05:40.296Z,1019.19
2018-05-06T01:06:40.272Z,1019.18
2018-05-06T01:07:40.258Z,1019.17
2018-05-06T01:08:40.242Z,1019.19
2018-05-06T01:09:40.226Z,1019.17
2018-05-06T01:10:40.210Z,1019.18
2018-05-06T01:11:40.192Z,1019.19
2018-05-06T01:12:40.175Z,1019.20
2018-05-06T01:13:40.161Z,1019.17
2018-05-06T01:14:40.146Z,1019.19
2018-05-06T01:15:40.130Z,1019.18
2018-05-06T01:16:40.121Z,1019.20
2018-05-06T01:17:40.108Z,1019.19
2018-05-06T01:18:40.079Z,1019.18
2018-05-06T01:19:40.067Z,1019.19
2018-05-06T01:20:40.051Z,1019.19
2018-05-06T01:21:40.034Z,1019.21
2018-05-06T01:22:40.018Z,1019.20
2018-05-06T01:23:39.999Z,1019.24
2018-05-06T01:24:39.988Z,1019.22
2018-05-06T01:25:39.969Z,1019.19
2018-05-06T01:26:39.957Z,1019.18
2018-05-06T01:27:39.939Z,1019.21
2018-05-06T01:28:39.917Z,1019.16
2018-05-06T01:29:39.909Z,1019.18
2018-05-06T01:30:39.889Z,1019.14
2018-05-06T01:31:39.870Z,1019.12
2018-05-06T01:32:39.854Z,1019.17
2018-05-06T01:33:39.838Z,1019.14
2018-05-06T01:34:39.826Z,1019.16
2018-05-06T01:35:39.806Z,1019.19
2018-05-06T01:36:39.788Z,1019.16
2018-05-06T01:37:39.776Z,1019.17
2018-05-06T01:38:39.758Z,1019.15
2018-05-06T01:39:39.744Z,1019.15
2018-05-06T01:40:39.724Z,1019.14
2018-05-06T01:41:40.038Z,1019.11
2018-05-06T01:42:39.695Z,1019.09
2018-05-06T01:43:39.679Z,1019.08
2018-05-06T01:44:39.671Z,1019.06
2018-05-06T01:45:39.644Z,1019.06
2018-05-06T01:46:39.626Z,1019.04
2018-05-06T01:47:39.617Z,1019.00
2018-05-06T01:48:39.594Z,1019.02
2018-05-06T01:49:39.578Z,1019.00
2018-05-06T01:50:39.564Z,1019.01
2018-05-06T01:51:39.546Z,1019.01
2018-05-06T01:52:39.531Z,1019.01
2018-05-06T01:53:39.516Z,1019.00
2018-05-06T01:54:39.500Z,1019.01
2018-05-06T01:55:39.480Z,1019.00
2018-05-06T01:56:39.467Z,1019.01
2018-05-06T01:57:39.450Z,1018.99
2018-05-06T01:58:39.433Z,1019.04
2018-05-06T01:59:39.417Z,1019.00
2018-05-06T02:00:39.444Z,1019.03
2018-05-06T02:01:39.386Z,1019.02
2018-05-06T02:02:39.366Z,1019.03
2018-05-06T02:03:39.350Z,1019.05
2018-05-06T02:04:39.333Z,1019.06
2018-05-06T02:05:39.318Z,1019.07
2018-05-06T02:06:39.303Z,1019.09
2018-05-06T02:07:39.291Z,1019.07
2018-05-06T02:08:39.269Z,1019.12
2018-05-06T02:09:39.255Z,1019.08
2018-05-06T02:10:39.243Z,1019.07
2018-05-06T02:11:39.220Z,1019.07
2018-05-06T02:12:39.205Z,1019.10
2018-05-06T02:13:39.189Z,1019.07
2018-05-06T02:14:39.176Z,1019.08
2018-05-06T02:15:39.163Z,1019.09
2018-05-06T02:16:39.136Z,1019.05
2018-05-06T02:17:39.120Z,1019.08
2018-05-06T02:18:39.105Z,1019.03
2018-05-06T02:19:39.089Z,1019.06
2018-05-06T02:20:39.075Z,1019.05
2018-05-06T02:21:39.063Z,1019.06
2018-05-06T02:22:39.039Z,1019.09
2018-05-06T02:23:39.026Z,1019.02
2018-05-06T02:24:39.016Z,1019.02
2018-05-06T02:25:38.988Z,1019.06
2018-05-06T02:26:38.978Z,1019.03
2018-05-06T02:27:38.964Z,1019.05
2018-05-06T02:28:38.938Z,1019.04
2018-05-06T02:29:38.932Z,1019.03
2018-05-06T02:30:38.909Z,1019.06
2018-05-06T02:31:38.893Z,1019.06
2018-05-06T02:32:38.880Z,1019.07
2018-05-06T02:33:38.859Z,1019.09
2018-05-06T02:34:38.846Z,1019.09
2018-05-06T02:35:38.825Z,1019.07
2018-05-06T02:36:38.809Z,1019.10
2018-05-06T02:37:38.799Z,1019.12
2018-05-06T02:38:38.780Z,1019.08
2018-05-06T02:39:38.775Z,1019.11
2018-05-06T02:40:38.745Z,1019.09
2018-05-06T02:41:38.728Z,1019.09
2018-05-06T02:42:38.710Z,1019.08
2018-05-06T02:43:38.699Z,1019.05
2018-05-06T02:44:38.676Z,1019.08
2018-05-06T02:45:38.661Z,1019.09
2018-05-06T02:46:38.640Z,1019.07
2018-05-06T02:47:38.629Z,1019.04
2018-05-06T02:48:38.617Z,1019.06
2018-05-06T02:49:38.592Z,1019.08
2018-05-06T02:50:38.576Z,1019.06
2018-05-06T02:51:38.561Z,1019.08
2018-05-06T02:52:38.545Z,1019.07
2018-05-06T02:53:38.530Z,1019.09
2018-05-06T02:54:38.514Z,1019.10
2018-05-06T02:55:38.494Z,1019.10
2018-05-06T02:56:38.481Z,1019.10
2018-05-06T02:57:38.457Z,1019.11
2018-05-06T02:58:38.446Z,1019.13
2018-05-06T02:59:38.427Z,1019.11
2018-05-06T03:00:38.413Z,1019.15
2018-05-06T03:01:38.396Z,1019.15
2018-05-06T03:02:38.379Z,1019.14
2018-05-06T03:03:38.363Z,1019.14
2018-05-06T03:04:38.352Z,1019.10
2018-05-06T03:05:38.329Z,1019.13
2018-05-06T03:06:38.316Z,1019.11
2018-05-06T03:07:38.292Z,1019.13
2018-05-06T03:08:38.276Z,1019.09
2018-05-06T03:09:38.259Z,1019.12
2018-05-06T03:10:38.245Z,1019.08
2018-05-06T03:11:38.229Z,1019.11
2018-05-06T03:12:38.209Z,1019.08
2018-05-06T03:13:38.193Z,1019.08
2018-05-06T03:14:38.179Z,1019.07
2018-05-06T03:15:38.166Z,1019.04
2018-05-06T03:16:38.147Z,1019.02
2018-05-06T03:17:38.127Z,1019.02
2018-05-06T03:18:38.109Z,1018.98
2018-05-06T03:19:38.094Z,1019.00
2018-05-06T03:20:38.082Z,1018.95
2018-05-06T03:21:38.059Z,1018.96
2018-05-06T03:22:38.046Z,1018.96
2018-05-06T03:23:38.029Z,1018.95
2018-05-06T03:24:38.019Z,1018.96
2018-05-06T03:25:37.994Z,1018.91
2018-05-06T03:26:37.977Z,1018.92
2018-05-06T03:27:37.960Z,1018.91
2018-05-06T03:28:37.946Z,1018.89
2018-05-06T03:29:37.923Z,1018.87
2018-05-06T03:30:37.919Z,1018.90
2018-05-06T03:31:37.899Z,1018.88
2018-05-06T03:32:37.875Z,1018.88
2018-05-06T03:33:37.859Z,1018.86
2018-05-06T03:34:37.843Z,1018.88
2018-05-06T03:35:37.826Z,1018.84
2018-05-06T03:36:37.813Z,1018.87
2018-05-06T03:37:37.797Z,1018.89
2018-05-06T03:38:37.778Z,1018.88
2018-05-06T03:39:37.768Z,1018.89
2018-05-06T03:40:37.741Z,1018.86
2018-05-06T03:41:37.725Z,1018.85
2018-05-06T03:42:37.710Z,1018.90
2018-05-06T03:43:37.692Z,1018.89
2018-05-06T03:44:37.678Z,1018.87
2018-05-06T03:45:37.660Z,1018.86
2018-05-06T03:46:37.640Z,1018.83
2018-05-06T03:47:37.626Z,1018.84
2018-05-06T03:48:37.607Z,1018.86
2018-05-06T03:49:37.589Z,1018.82
2018-05-06T03:50:37.576Z,1018.80
2018-05-06T03:51:37.565Z,1018.76
2018-05-06T03:52:37.542Z,1018.78
2018-05-06T03:53:37.529Z,1018.78
2018-05-06T03:54:37.508Z,1018.76
2018-05-06T03:55:37.489Z,1018.76
2018-05-06T03:56:37.473Z,1018.77
2018-05-06T03:57:37.453Z,1018.78
2018-05-06T03:58:37.439Z,1018.74
2018-05-06T03:59:37.420Z,1018.77
2018-05-06T04:00:37.412Z,1018.74
2018-05-06T04:01:37.387Z,1018.74
2018-05-06T04:02:37.370Z,1018.75
2018-05-06T04:03:37.354Z,1018.74
2018-05-06T04:04:37.336Z,1018.75
2018-05-06T04:05:37.318Z,1018.76
2018-05-06T04:06:37.310Z,1018.76
2018-05-06T04:07:37.289Z,1018.72
2018-05-06T04:08:37.271Z,1018.72
2018-05-06T04:09:37.249Z,1018.76
2018-05-06T04:10:37.239Z,1018.72
2018-05-06T04:11:37.221Z,1018.78
2018-05-06T04:12:37.204Z,1018.78
2018-05-06T04:13:37.187Z,1018.75
2018-05-06T04:14:37.169Z,1018.76
2018-05-06T04:15:37.148Z,1018.78
2018-05-06T04:16:37.132Z,1018.76
2018-05-06T04:17:37.118Z,1018.79
2018-05-06T04:18:37.103Z,1018.76
2018-05-06T04:19:37.089Z,1018.76
2018-05-06T04:20:37.069Z,1018.76
2018-05-06T04:21:37.049Z,1018.76
2018-05-06T04:22:37.031Z,1018.82
2018-05-06T04:23:37.015Z,1018.79
2018-05-06T04:24:36.999Z,1018.79
2018-05-06T04:25:36.982Z,1018.81
2018-05-06T04:26:36.967Z,1018.81
2018-05-06T04:27:36.945Z,1018.82
2018-05-06T04:28:36.928Z,1018.81
2018-05-06T04:29:36.913Z,1018.86
2018-05-06T04:30:36.899Z,1018.86
2018-05-06T04:31:36.882Z,1018.85
2018-05-06T04:32:36.860Z,1018.86
2018-05-06T04:33:36.844Z,1018.85
2018-05-06T04:34:36.828Z,1018.86
2018-05-06T04:35:36.809Z,1018.86
2018-05-06T04:36:36.798Z,1018.86
2018-05-06T04:37:36.777Z,1018.86
2018-05-06T04:38:36.759Z,1018.90
2018-05-06T04:39:36.748Z,1018.90
2018-05-06T04:40:36.725Z,1018.93
2018-05-06T04:41:36.709Z,1018.94
2018-05-06T04:42:36.691Z,1018.95
2018-05-06T04:43:36.683Z,1018.98
2018-05-06T04:44:36.668Z,1018.94
2018-05-06T04:45:36.645Z,1018.95
2018-05-06T04:46:36.628Z,1018.91
2018-05-06T04:47:36.611Z,1018.95
2018-05-06T04:48:36.589Z,1018.95
2018-05-06T04:49:36.582Z,1018.95
2018-05-06T04:50:36.555Z,1018.93
2018-05-06T04:51:36.539Z,1018.95
2018-05-06T04:52:36.531Z,1018.95
2018-05-06T04:53:36.509Z,1018.94
2018-05-06T04:54:36.490Z,1018.92
2018-05-06T04:55:36.471Z,1018.97
2018-05-06T04:56:36.459Z,1018.99
2018-05-06T04:57:36.436Z,1018.98
2018-05-06T04:58:36.427Z,1018.97
2018-05-06T04:59:36.406Z,1018.99
2018-05-06T05:00:36.389Z,1018.97
2018-05-06T05:01:36.370Z,1019.01
2018-05-06T05:02:36.352Z,1018.97
2018-05-06T05:03:36.334Z,1018.99
2018-05-06T05:04:36.335Z,1018.99
2018-05-06T05:05:36.307Z,1018.97
2018-05-06T05:06:36.305Z,1018.97
2018-05-06T05:07:36.270Z,1018.94
2018-05-06T05:08:36.249Z,1018.96
2018-05-06T05:09:36.318Z,1018.97
2018-05-06T05:10:36.224Z,1018.96
2018-05-06T05:11:36.203Z,1018.95
2018-05-06T05:12:36.186Z,1018.99
2018-05-06T05:13:36.169Z,1019.01
2018-05-06T05:14:36.148Z,1019.00
2018-05-06T05:15:36.143Z,1019.01
2018-05-06T05:16:36.120Z,1019.02
2018-05-06T05:17:36.099Z,1018.99
2018-05-06T05:18:36.084Z,1019.02
2018-05-06T05:19:36.072Z,1019.06
2018-05-06T05:20:36.048Z,1019.07
2018-05-06T05:21:36.108Z,1019.05
2018-05-06T05:22:36.012Z,1019.10
2018-05-06T05:23:35.997Z,1019.11
2018-05-06T05:24:35.979Z,1019.11
2018-05-06T05:25:35.962Z,1019.10
2018-05-06T05:26:35.954Z,1019.14
2018-05-06T05:27:35.936Z,1019.18
2018-05-06T05:28:35.917Z,1019.16
2018-05-06T05:29:35.895Z,1019.16
2018-05-06T05:30:35.883Z,1019.20
2018-05-06T05:31:35.864Z,1019.18
2018-05-06T05:32:35.851Z,1019.18
2018-05-06T05:33:35.829Z,1019.15
2018-05-06T05:34:35.817Z,1019.18
2018-05-06T05:35:35.800Z,1019.13
2018-05-06T05:36:35.776Z,1019.11
2018-05-06T05:37:35.765Z,1019.09
2018-05-06T05:38:35.747Z,1019.11
2018-05-06T05:39:35.744Z,1019.11
2018-05-06T05:40:35.714Z,1019.06
2018-05-06T05:41:35.702Z,1019.11
2018-05-06T05:42:35.679Z,1019.15
2018-05-06T05:43:35.662Z,1019.14
2018-05-06T05:44:35.642Z,1019.19
2018-05-06T05:45:35.627Z,1019.21
2018-05-06T05:46:35.610Z,1019.18
2018-05-06T05:47:35.621Z,1019.22
2018-05-06T05:48:35.577Z,1019.25
2018-05-06T05:49:35.560Z,1019.29
2018-05-06T05:50:35.548Z,1019.28
2018-05-06T05:51:35.534Z,1019.30
2018-05-06T05:52:35.515Z,1019.32
2018-05-06T05:53:35.495Z,1019.36
2018-05-06T05:54:35.477Z,1019.39
2018-05-06T05:55:35.463Z,1019.38
2018-05-06T05:56:35.445Z,1019.40
2018-05-06T05:57:35.425Z,1019.41
2018-05-06T05:58:35.412Z,1019.40
2018-05-06T05:59:35.399Z,1019.45
2018-05-06T06:00:35.381Z,1019.42
2018-05-06T06:01:35.401Z,1019.42
2018-05-06T06:02:35.345Z,1019.44
2018-05-06T06:03:35.329Z,1019.42
2018-05-06T06:04:35.309Z,1019.44
2018-05-06T06:05:35.299Z,1019.44
2018-05-06T06:06:35.274Z,1019.47
2018-05-06T06:07:35.256Z,1019.44
2018-05-06T06:08:35.240Z,1019.48
2018-05-06T06:09:35.229Z,1019.45
2018-05-06T06:10:35.210Z,1019.49
2018-05-06T06:11:35.192Z,1019.48
2018-05-06T06:12:35.183Z,1019.49
2018-05-06T06:13:35.159Z,1019.50
2018-05-06T06:14:35.147Z,1019.48
2018-05-06T06:15:35.188Z,1019.49
2018-05-06T06:16:35.110Z,1019.49
2018-05-06T06:17:35.115Z,1019.51
2018-05-06T06:18:35.075Z,1019.49
2018-05-06T06:19:35.059Z,1019.51
2018-05-06T06:20:35.041Z,1019.51
2018-05-06T06:21:35.031Z,1019.52
2018-05-06T06:22:35.008Z,1019.52
2018-05-06T06:23:34.997Z,1019.54
2018-05-06T06:24:35.052Z,1019.53
2018-05-06T06:25:34.957Z,1019.56
2018-05-06T06:26:34.941Z,1019.54
2018-05-06T06:27:34.929Z,1019.56
2018-05-06T06:28:34.909Z,1019.55
2018-05-06T06:29:34.899Z,1019.54
2018-05-06T06:30:34.877Z,1019.55
2018-05-06T06:31:34.862Z,1019.53
2018-05-06T06:32:34.846Z,1019.55
2018-05-06T06:33:34.830Z,1019.54
2018-05-06T06:34:34.810Z,1019.57
2018-05-06T06:35:34.793Z,1019.57
2018-05-06T06:36:34.775Z,1019.59
2018-05-06T06:37:34.763Z,1019.57
2018-05-06T06:38:34.744Z,1019.55
2018-05-06T06:39:34.729Z,1019.59
2018-05-06T06:40:34.709Z,1019.59
2018-05-06T06:41:34.699Z,1019.62
2018-05-06T06:42:34.679Z,1019.59
2018-05-06T06:43:34.664Z,1019.60
2018-05-06T06:44:34.648Z,1019.60
2018-05-06T06:45:34.628Z,1019.61
2018-05-06T06:46:34.610Z,1019.59
2018-05-06T06:47:34.600Z,1019.56
2018-05-06T06:48:34.578Z,1019.53
2018-05-06T06:49:34.565Z,1019.57
2018-05-06T06:50:34.551Z,1019.54
2018-05-06T06:51:34.530Z,1019.55
2018-05-06T06:52:34.515Z,1019.47
2018-05-06T06:53:34.503Z,1019.52
2018-05-06T06:54:34.480Z,1019.50
2018-05-06T06:55:34.467Z,1019.51
2018-05-06T06:56:34.449Z,1019.51
2018-05-06T06:57:34.428Z,1019.47
2018-05-06T06:58:34.423Z,1019.50
2018-05-06T06:59:34.399Z,1019.51
2018-05-06T07:00:34.392Z,1019.47
2018-05-06T07:01:34.369Z,1019.53
2018-05-06T07:02:34.351Z,1019.47
2018-05-06T07:03:34.330Z,1019.53
2018-05-06T07:04:34.315Z,1019.55
2018-05-06T07:05:34.305Z,1019.56
2018-05-06T07:06:34.288Z,1019.57
2018-05-06T07:07:34.272Z,1019.57
2018-05-06T07:08:34.249Z,1019.61
2018-05-06T07:09:34.239Z,1019.65
2018-05-06T07:10:34.215Z,1019.69
2018-05-06T07:11:34.201Z,1019.63
2018-05-06T07:12:34.183Z,1019.65
2018-05-06T07:13:34.169Z,1019.68
2018-05-06T07:14:34.152Z,1019.69
2018-05-06T07:15:34.139Z,1019.66
2018-05-06T07:16:34.132Z,1019.69
2018-05-06T07:17:34.102Z,1019.65
2018-05-06T07:18:34.089Z,1019.64
2018-05-06T07:19:34.079Z,1019.64
2018-05-06T07:20:34.057Z,1019.70
2018-05-06T07:21:34.044Z,1019.67
2018-05-06T07:22:34.026Z,1019.69
2018-05-06T07:23:34.010Z,1019.67
2018-05-06T07:24:34.000Z,1019.68
2018-05-06T07:25:33.978Z,1019.71
2018-05-06T07:26:33.970Z,1019.72
2018-05-06T07:27:33.951Z,1019.72
2018-05-06T07:28:33.927Z,1019.75
2018-05-06T07:29:33.917Z,1019.77
2018-05-06T07:30:33.903Z,1019.78
2018-05-06T07:31:33.879Z,1019.71
2018-05-06T07:32:33.865Z,1019.76
2018-05-06T07:33:33.851Z,1019.72
2018-05-06T07:34:33.838Z,1019.77
2018-05-06T07:35:33.819Z,1019.74
2018-05-06T07:36:33.808Z,1019.81
2018-05-06T07:37:33.792Z,1019.78
2018-05-06T07:38:33.774Z,1019.85
2018-05-06T07:39:33.758Z,1019.81
2018-05-06T07:40:33.739Z,1019.81
2018-05-06T07:41:33.739Z,1019.81
2018-05-06T07:42:33.713Z,1019.90
2018-05-06T07:43:33.694Z,1019.85
2018-05-06T07:44:33.677Z,1019.88
2018-05-06T07:45:33.660Z,1019.85
2018-05-06T07:46:33.651Z,1019.88
2018-05-06T07:47:33.628Z,1019.89
2018-05-06T07:48:33.618Z,1019.91
2018-05-06T07:49:33.602Z,1019.91
2018-05-06T07:50:33.585Z,1019.92
2018-05-06T07:51:33.568Z,1019.95
2018-05-06T07:52:33.561Z,1019.92
2018-05-06T07:53:33.541Z,1019.95
2018-05-06T07:54:33.526Z,1019.95
2018-05-06T07:55:33.517Z,1019.94
2018-05-06T07:56:33.495Z,1019.88
2018-05-06T07:57:33.477Z,1019.87
2018-05-06T07:58:33.459Z,1019.86
2018-05-06T07:59:33.450Z,1019.83
2018-05-06T08:00:33.430Z,1019.83
2018-05-06T08:01:33.418Z,1019.85
2018-05-06T08:02:33.400Z,1019.82
2018-05-06T08:03:33.388Z,1019.83
2018-05-06T08:04:33.380Z,1019.84
2018-05-06T08:05:33.356Z,1019.81
2018-05-06T08:06:33.340Z,1019.80
2018-05-06T08:07:33.324Z,1019.83
2018-05-06T08:08:33.316Z,1019.86
2018-05-06T08:09:33.295Z,1019.89
2018-05-06T08:10:33.282Z,1019.92
2018-05-06T08:11:33.273Z,1019.94
2018-05-06T08:12:33.257Z,1019.93
2018-05-06T08:13:33.241Z,1019.98
2018-05-06T08:14:33.221Z,1020.02
2018-05-06T08:15:33.210Z,1020.03
2018-05-06T08:16:33.285Z,1020.06
2018-05-06T08:17:33.175Z,1020.05
2018-05-06T08:18:33.160Z,1020.07
2018-05-06T08:19:33.148Z,1020.10
2018-05-06T08:20:33.138Z,1020.13
2018-05-06T08:21:33.122Z,1020.12
2018-05-06T08:22:33.113Z,1020.11
2018-05-06T08:23:33.090Z,1020.11
2018-05-06T08:24:33.077Z,1020.10
2018-05-06T08:25:33.067Z,1020.14
2018-05-06T08:26:33.052Z,1020.13
2018-05-06T08:27:33.048Z,1020.11
2018-05-06T08:28:33.016Z,1020.12
2018-05-06T08:29:33.007Z,1020.13
2018-05-06T08:30:32.997Z,1020.14
2018-05-06T08:31:32.972Z,1020.08
2018-05-06T08:32:32.959Z,1020.07
2018-05-06T08:33:32.941Z,1020.14
2018-05-06T08:34:32.936Z,1020.14
2018-05-06T08:35:32.916Z,1020.12
2018-05-06T08:36:32.900Z,1020.13
2018-05-06T08:37:32.910Z,1020.15
2018-05-06T08:38:32.871Z,1020.14
2018-05-06T08:39:32.857Z,1020.14
2018-05-06T08:40:32.845Z,1020.10
2018-05-06T08:41:32.831Z,1020.10
2018-05-06T08:42:32.813Z,1020.12
2018-05-06T08:43:32.800Z,1020.10
2018-05-06T08:44:32.790Z,1020.09
2018-05-06T08:45:32.770Z,1020.06
2018-05-06T08:46:32.753Z,1020.09
2018-05-06T08:47:32.748Z,1020.05
2018-05-06T08:48:32.729Z,1020.06
2018-05-06T08:49:32.724Z,1020.04
2018-05-06T08:50:32.710Z,1020.05
2018-05-06T08:51:32.754Z,1020.02
2018-05-06T08:52:32.675Z,1020.00
2018-05-06T08:53:32.657Z,1019.97
2018-05-06T08:54:32.644Z,1019.98
2018-05-06T08:55:32.648Z,1019.96
2018-05-06T08:56:32.613Z,1019.97
2018-05-06T08:57:32.602Z,1019.94
2018-05-06T08:58:32.586Z,1019.92
2018-05-06T08:59:32.656Z,1019.89
2018-05-06T09:00:32.564Z,1019.82
2018-05-06T09:01:32.554Z,1019.82
2018-05-06T09:02:32.531Z,1019.85
2018-05-06T09:03:32.517Z,1019.84
2018-05-06T09:04:32.507Z,1019.83
2018-05-06T09:05:32.492Z,1019.83
2018-05-06T09:06:32.475Z,1019.85
2018-05-06T09:07:32.470Z,1019.83
2018-05-06T09:08:32.468Z,1019.80
2018-05-06T09:09:32.444Z,1019.78
2018-05-06T09:10:32.421Z,1019.77
2018-05-06T09:11:32.408Z,1019.81
2018-05-06T09:12:32.398Z,1019.80
2018-05-06T09:13:32.388Z,1019.83
2018-05-06T09:14:32.366Z,1019.82
2018-05-06T09:15:32.352Z,1019.81
2018-05-06T09:16:32.339Z,1019.84
2018-05-06T09:17:32.328Z,1019.82
2018-05-06T09:18:32.316Z,1019.79
2018-05-06T09:19:32.301Z,1019.79
2018-05-06T09:20:32.289Z,1019.76
2018-05-06T09:21:32.272Z,1019.79
2018-05-06T09:22:32.260Z,1019.81
2018-05-06T09:23:32.251Z,1019.78
2018-05-06T09:24:32.244Z,1019.74
2018-05-06T09:25:32.230Z,1019.71
2018-05-06T09:26:32.210Z,1019.70
2018-05-06T09:27:32.192Z,1019.67
2018-05-06T09:28:32.178Z,1019.68
2018-05-06T09:29:32.170Z,1019.65
2018-05-06T09:30:32.153Z,1019.68
2018-05-06T09:31:32.142Z,1019.67
2018-05-06T09:32:32.137Z,1019.66
2018-05-06T09:33:32.112Z,1019.63
2018-05-06T09:34:32.117Z,1019.62
2018-05-06T09:35:32.093Z,1019.61
2018-05-06T09:36:32.077Z,1019.59
2018-05-06T09:37:32.067Z,1019.60
2018-05-06T09:38:32.048Z,1019.59
2018-05-06T09:39:32.040Z,1019.61
2018-05-06T09:40:32.029Z,1019.65
2018-05-06T09:41:32.013Z,1019.64
2018-05-06T09:42:31.997Z,1019.64
2018-05-06T09:43:31.990Z,1019.67
2018-05-06T09:44:31.974Z,1019.66
2018-05-06T09:45:31.972Z,1019.66
2018-05-06T09:46:31.948Z,1019.59
2018-05-06T09:47:31.944Z,1019.63
2018-05-06T09:48:31.918Z,1019.63
2018-05-06T09:49:31.909Z,1019.60
2018-05-06T09:50:31.897Z,1019.61
2018-05-06T09:51:31.879Z,1019.61
2018-05-06T09:52:31.869Z,1019.60
2018-05-06T09:53:31.860Z,1019.59
2018-05-06T09:54:31.846Z,1019.58
2018-05-06T09:55:31.831Z,1019.56
2018-05-06T09:56:31.821Z,1019.60
2018-05-06T09:57:31.804Z,1019.55
2018-05-06T09:58:31.788Z,1019.54
2018-05-06T09:59:31.777Z,1019.55
2018-05-06T10:00:31.781Z,1019.57
2018-05-06T10:01:31.753Z,1019.53
2018-05-06T10:02:31.738Z,1019.56
2018-05-06T10:03:31.732Z,1019.54
2018-05-06T10:04:31.722Z,1019.56
2018-05-06T10:05:31.703Z,1019.54
2018-05-06T10:06:31.704Z,1019.49
2018-05-06T10:07:31.674Z,1019.51
2018-05-06T10:08:31.671Z,1019.55
2018-05-06T10:09:31.655Z,1019.53
2018-05-06T10:10:31.643Z,1019.50
2018-05-06T10:11:31.623Z,1019.53
2018-05-06T10:12:31.619Z,1019.51
2018-05-06T10:13:31.613Z,1019.53
2018-05-06T10:14:31.588Z,1019.51
2018-05-06T10:15:31.585Z,1019.50
2018-05-06T10:16:31.573Z,1019.51
2018-05-06T10:17:31.550Z,1019.49
2018-05-06T10:18:31.543Z,1019.51
2018-05-06T10:19:31.529Z,1019.50
2018-05-06T10:20:31.526Z,1019.53
2018-05-06T10:21:31.500Z,1019.51
2018-05-06T10:22:31.492Z,1019.55
2018-05-06T10:23:31.479Z,1019.55
2018-05-06T10:24:31.462Z,1019.59
2018-05-06T10:25:31.457Z,1019.52
2018-05-06T10:26:31.457Z,1019.58
2018-05-06T10:27:31.440Z,1019.58
2018-05-06T10:28:31.417Z,1019.51
2018-05-06T10:29:31.403Z,1019.43
2018-05-06T10:30:31.419Z,1019.49
2018-05-06T10:31:31.376Z,1019.45
2018-05-06T10:32:31.368Z,1019.43
2018-05-06T10:33:31.353Z,1019.43
2018-05-06T10:34:31.341Z,1019.46
2018-05-06T10:35:31.332Z,1019.44
2018-05-06T10:36:31.344Z,1019.42
2018-05-06T10:37:31.323Z,1019.42
2018-05-06T10:38:31.301Z,1019.39
2018-05-06T10:39:31.281Z,1019.36
2018-05-06T10:40:31.276Z,1019.35
2018-05-06T10:41:31.260Z,1019.31
2018-05-06T10:42:31.242Z,1019.33
2018-05-06T10:43:31.233Z,1019.32
2018-05-06T10:44:31.227Z,1019.28
2018-05-06T10:45:31.212Z,1019.29
2018-05-06T10:46:31.196Z,1019.31
2018-05-06T10:47:31.191Z,1019.30
2018-05-06T10:48:31.177Z,1019.28
2018-05-06T10:49:31.163Z,1019.31
2018-05-06T10:50:31.343Z,1019.25
2018-05-06T10:51:31.160Z,1019.21
2018-05-06T10:52:31.124Z,1019.21
2018-05-06T10:53:31.113Z,1019.19
2018-05-06T10:54:31.102Z,1019.16
2018-05-06T10:55:31.089Z,1019.18
2018-05-06T10:56:31.090Z,1019.12
2018-05-06T10:57:31.068Z,1019.15
2018-05-06T10:58:31.060Z,1019.15
2018-05-06T10:59:31.044Z,1019.15
2018-05-06T11:00:31.035Z,1019.10
2018-05-06T11:01:31.028Z,1019.10
2018-05-06T11:02:31.012Z,1019.11
2018-05-06T11:03:30.997Z,1019.07
2018-05-06T11:04:31.001Z,1019.06
2018-05-06T11:05:30.992Z,1019.11
2018-05-06T11:06:30.971Z,1019.06
2018-05-06T11:07:30.952Z,1019.06
2018-05-06T11:08:30.963Z,1019.09
2018-05-06T11:09:30.926Z,1019.06
2018-05-06T11:10:31.034Z,1019.07
2018-05-06T11:11:30.901Z,1019.05
2018-05-06T11:12:30.892Z,1019.01
2018-05-06T11:13:30.883Z,1019.03
2018-05-06T11:14:30.870Z,1018.98
2018-05-06T11:15:30.863Z,1018.96
2018-05-06T11:16:30.850Z,1018.93
2018-05-06T11:17:30.843Z,1018.93
2018-05-06T11:18:30.829Z,1018.92
2018-05-06T11:19:30.811Z,1018.90
2018-05-06T11:20:30.797Z,1018.93
2018-05-06T11:21:30.797Z,1018.97
2018-05-06T11:22:30.785Z,1019.02
2018-05-06T11:23:30.764Z,1018.98
2018-05-06T11:24:30.758Z,1018.97
2018-05-06T11:25:30.742Z,1018.96
2018-05-06T11:26:30.729Z,1018.93
2018-05-06T11:27:30.729Z,1018.89
2018-05-06T11:28:30.706Z,1018.85
2018-05-06T11:29:30.691Z,1018.87
2018-05-06T11:30:30.685Z,1018.86
2018-05-06T11:31:30.672Z,1018.87
2018-05-06T11:32:30.656Z,1018.80
2018-05-06T11:33:30.654Z,1018.75
2018-05-06T11:34:30.645Z,1018.77
2018-05-06T11:35:30.623Z,1018.75
2018-05-06T11:36:30.613Z,1018.79
2018-05-06T11:37:30.614Z,1018.80
2018-05-06T11:38:30.589Z,1018.80
2018-05-06T11:39:30.580Z,1018.80
2018-05-06T11:40:30.562Z,1018.84
2018-05-06T11:41:30.558Z,1018.84
2018-05-06T11:42:30.542Z,1018.83
2018-05-06T11:43:30.531Z,1018.77
2018-05-06T11:44:30.520Z,1018.78
2018-05-06T11:45:30.510Z,1018.76
2018-05-06T11:46:30.491Z,1018.78
2018-05-06T11:47:30.484Z,1018.77
2018-05-06T11:48:30.467Z,1018.78
2018-05-06T11:49:30.458Z,1018.78
2018-05-06T11:50:30.450Z,1018.77
2018-05-06T11:51:30.441Z,1018.76
2018-05-06T11:52:30.434Z,1018.74
2018-05-06T11:53:30.438Z,1018.78
2018-05-06T11:54:30.404Z,1018.72
2018-05-06T11:55:30.388Z,1018.75
2018-05-06T11:56:30.380Z,1018.70
2018-05-06T11:57:30.364Z,1018.79
2018-05-06T11:58:30.370Z,1018.78
2018-05-06T11:59:30.339Z,1018.79
2018-05-06T12:00:30.343Z,1018.80
2018-05-06T12:01:30.320Z,1018.80
2018-05-06T12:02:30.318Z,1018.74
2018-05-06T12:03:30.293Z,1018.73
2018-05-06T12:04:30.289Z,1018.72
2018-05-06T12:05:30.273Z,1018.71